Time;durP1;ratioP1;P1;durP2;ratioP2;P2;SDS_P1;SDS_P2;PMS_P1;PMS_P2;Temp;Humidity;BMP_temperature;BMP_pressure;BME280_temperature;BME280_humidity;BME280_pressure;Samples;Min_cycle;Max_cycle;Signal;HPM_P1;HPM_P2
2024/03/03 00:02:28;;;;;;;5.03;2.60;;;11.60;99.90;;;;;;8454219;28;20105;-75
2024/03/03 00:06:31;;;;;;;4.85;2.55;;;11.60;99.90;;;;;;8457900;27;20556;-75
2024/03/03 00:10:33;;;;;;;4.10;1.98;;;11.60;99.90;;;;;;8457218;28;20051;-75
2024/03/03 00:14:35;;;;;;;4.75;2.53;;;11.60;99.90;;;;;;8447733;28;20051;-74
2024/03/03 00:18:38;;;;;;;4.90;2.63;;;11.60;99.90;;;;;;8454350;28;20048;-75
2024/03/03 00:22:40;;;;;;;6.38;2.50;;;11.70;99.90;;;;;;8453698;28;20048;-75
2024/03/03 00:26:42;;;;;;;5.68;2.67;;;11.70;99.90;;;;;;8454804;28;20486;-75
2024/03/03 00:30:44;;;;;;;6.35;2.90;;;11.70;99.90;;;;;;8454529;28;20055;-75
2024/03/03 00:34:46;;;;;;;5.68;2.75;;;11.70;99.90;;;;;;8456256;28;20074;-74
2024/03/03 00:38:47;;;;;;;5.43;2.92;;;11.70;99.90;;;;;;8456696;27;20564;-75
2024/03/03 00:48:18;;;;;;;5.00;2.85;;;11.70;99.90;;;;;;8454352;28;20390;-74
2024/03/03 00:52:20;;;;;;;4.60;2.50;;;11.70;99.90;;;;;;8455062;28;20046;-74
2024/03/03 00:56:22;;;;;;;5.40;2.78;;;11.70;99.90;;;;;;8455463;28;20078;-75
2024/03/03 01:00:39;;;;;;;4.78;2.50;;;11.70;99.90;;;;;;8459756;28;20109;-74
2024/03/03 01:04:41;;;;;;;;;;;11.70;99.90;;;;;;8458623;27;20418;-75
2024/03/03 01:08:43;;;;;;;5.50;2.85;;;11.70;99.90;;;;;;8461054;28;19968;-74
2024/03/03 01:12:45;;;;;;;5.03;2.60;;;11.70;99.90;;;;;;8461409;27;20062;-74
2024/03/03 01:16:47;;;;;;;5.20;2.40;;;11.70;99.90;;;;;;8455930;28;20044;-75
2024/03/03 01:20:48;;;;;;;5.50;2.70;;;11.70;99.90;;;;;;8461338;27;20039;-75
2024/03/03 01:24:50;;;;;;;4.75;2.58;;;11.80;99.90;;;;;;8459381;27;20048;-75
2024/03/03 01:29:07;;;;;;;7.45;2.80;;;11.80;99.90;;;;;;8460632;27;20582;-74
2024/03/03 01:33:09;;;;;;;5.60;2.90;;;11.80;99.90;;;;;;8461425;28;20067;-74
2024/03/03 01:37:11;;;;;;;4.78;2.65;;;11.80;99.90;;;;;;8459221;28;20055;-75
2024/03/03 01:41:13;;;;;;;5.40;2.70;;;11.80;99.90;;;;;;8459711;28;20411;-74
2024/03/03 01:45:22;;;;;;;5.05;2.70;;;11.70;99.90;;;;;;8460206;28;20109;-75
2024/03/03 01:49:25;;;;;;;6.93;3.03;;;11.70;99.90;;;;;;8459548;27;20047;-74
2024/03/03 01:53:27;;;;;;;5.55;2.80;;;11.70;99.90;;;;;;8461250;27;20479;-75
2024/03/03 01:57:29;;;;;;;6.93;2.92;;;11.70;99.90;;;;;;8458514;27;20109;-75
2024/03/03 02:01:32;;;;;;;5.32;3.00;;;11.70;99.90;;;;;;8458810;27;20449;-75
2024/03/03 02:05:36;;;;;;;6.85;3.33;;;11.70;99.90;;;;;;8457624;28;20048;-74
2024/03/03 02:09:41;;;;;;;5.70;2.92;;;11.70;99.90;;;;;;8459421;28;20043;-75
2024/03/03 02:13:44;;;;;;;5.35;2.85;;;11.60;99.90;;;;;;8455341;28;20495;-75
2024/03/03 02:17:45;;;;;;;6.43;3.25;;;11.60;99.90;;;;;;8453311;28;20043;-75
2024/03/03 02:21:47;;;;;;;5.45;3.20;;;11.60;99.90;;;;;;8458567;28;20043;-75
2024/03/03 02:25:49;;;;;;;5.72;2.97;;;11.50;99.90;;;;;;8458550;28;20093;-75
2024/03/03 02:29:51;;;;;;;5.65;2.63;;;11.50;99.90;;;;;;8457901;28;20047;-75
2024/03/03 02:33:53;;;;;;;5.15;2.88;;;11.40;99.90;;;;;;8457075;28;20104;-75
2024/03/03 02:37:55;;;;;;;5.28;3.10;;;11.40;99.90;;;;;;8458724;28;20100;-74
2024/03/03 02:41:57;;;;;;;5.60;3.45;;;11.30;99.90;;;;;;8460133;28;20043;-75
2024/03/03 02:45:58;;;;;;;5.15;2.83;;;11.30;99.90;;;;;;8458025;28;20055;-74
2024/03/03 02:50:53;;;;;;;7.45;3.22;;;11.30;99.90;;;;;;8458548;28;20040;-74
2024/03/03 02:54:55;;;;;;;6.05;3.00;;;11.20;99.90;;;;;;8458222;28;20044;-75
2024/03/03 02:58:57;;;;;;;5.75;3.25;;;11.20;99.90;;;;;;8456711;28;20100;-74
2024/03/03 03:02:59;;;;;;;6.50;3.40;;;11.10;99.90;;;;;;8458603;27;20040;-75
2024/03/03 03:07:01;;;;;;;5.93;3.40;;;11.10;99.90;;;;;;8457042;28;20802;-74
2024/03/03 03:11:05;;;;;;;6.38;3.70;;;11.00;99.90;;;;;;8458278;27;20434;-75
2024/03/03 03:15:08;;;;;;;6.20;3.28;;;11.00;99.90;;;;;;8455561;27;20044;-75
2024/03/03 03:19:09;;;;;;;6.90;3.50;;;11.00;99.90;;;;;;8456853;28;20522;-74
2024/03/03 03:23:11;;;;;;;6.22;3.28;;;11.00;99.90;;;;;;8457617;27;20408;-75
2024/03/03 03:27:13;;;;;;;5.78;3.30;;;10.90;99.90;;;;;;8453962;27;20490;-75
2024/03/03 03:31:16;;;;;;;6.90;3.35;;;10.90;99.90;;;;;;8455802;28;20051;-75
2024/03/03 03:35:18;;;;;;;7.03;3.28;;;10.90;99.90;;;;;;8455851;28;20414;-74
2024/03/03 03:39:21;;;;;;;8.48;3.70;;;10.90;99.90;;;;;;8456466;28;20036;-75
2024/03/03 03:43:22;;;;;;;6.20;3.55;;;10.80;99.90;;;;;;8457991;28;20043;-74
2024/03/03 03:47:24;;;;;;;6.40;3.80;;;10.80;99.90;;;;;;8455918;28;20150;-74
2024/03/03 03:51:26;;;;;;;6.53;3.55;;;10.70;99.90;;;;;;8457264;27;20396;-75
2024/03/03 03:55:28;;;;;;;6.70;3.47;;;10.70;99.90;;;;;;8483016;27;20049;-74
2024/03/03 03:59:30;;;;;;;6.85;3.83;;;10.60;99.90;;;;;;8456654;28;20039;-74
2024/03/03 04:03:32;;;;;;;7.82;4.18;;;10.60;99.90;;;;;;8456630;28;20043;-74
2024/03/03 04:07:34;;;;;;;7.25;3.65;;;10.50;99.90;;;;;;8452387;28;20158;-75
2024/03/03 04:12:19;;;;;;;7.68;4.13;;;10.50;99.90;;;;;;8456821;28;20092;-74
2024/03/03 04:16:21;;;;;;;6.57;3.83;;;10.50;99.90;;;;;;8445095;28;20073;-75
2024/03/03 04:20:23;;;;;;;6.85;4.03;;;10.40;99.90;;;;;;8452788;28;20097;-75
2024/03/03 04:24:25;;;;;;;6.43;3.88;;;10.40;99.90;;;;;;8456733;28;20040;-75
2024/03/03 04:28:26;;;;;;;7.15;3.88;;;10.30;99.90;;;;;;8450982;28;20062;-75
2024/03/03 04:32:28;;;;;;;6.60;3.75;;;10.30;99.90;;;;;;8455176;28;20055;-75
2024/03/03 04:36:30;;;;;;;6.47;3.90;;;10.30;99.90;;;;;;8452941;28;20182;-74
2024/03/03 04:40:32;;;;;;;7.32;4.25;;;10.20;99.90;;;;;;8453663;28;20078;-74
2024/03/03 04:44:34;;;;;;;8.27;4.25;;;10.20;99.90;;;;;;8455887;28;20040;-74
2024/03/03 04:48:36;;;;;;;8.35;4.32;;;10.20;99.90;;;;;;8449597;27;20066;-74
2024/03/03 04:52:38;;;;;;;7.97;4.07;;;10.20;99.90;;;;;;8474683;27;20055;-75
2024/03/03 04:56:40;;;;;;;7.45;4.30;;;10.20;99.90;;;;;;8451899;28;20051;-75
2024/03/03 05:00:42;;;;;;;8.23;4.43;;;10.20;99.90;;;;;;8447877;28;20097;-75
2024/03/03 05:04:44;;;;;;;7.78;4.47;;;10.20;99.90;;;;;;8446721;28;20070;-74
2024/03/03 05:08:46;;;;;;;8.13;4.30;;;10.30;99.90;;;;;;8451471;28;20509;-75
2024/03/03 05:12:47;;;;;;;7.40;4.28;;;10.30;99.90;;;;;;8452458;28;20120;-74
2024/03/03 05:16:49;;;;;;;11.05;5.20;;;10.30;99.90;;;;;;8446669;28;20056;-75
2024/03/03 05:20:51;;;;;;;8.65;4.80;;;10.30;99.90;;;;;;8447034;28;20088;-75
2024/03/03 05:24:53;;;;;;;9.10;4.97;;;10.30;99.90;;;;;;8451980;28;20052;-74
2024/03/03 05:28:55;;;;;;;9.43;4.70;;;10.30;99.90;;;;;;8447263;28;20136;-74
2024/03/03 05:32:57;;;;;;;9.40;4.57;;;10.20;99.90;;;;;;8452466;28;20056;-74
2024/03/03 05:36:59;;;;;;;9.30;4.97;;;10.20;99.90;;;;;;8449466;28;20044;-74
2024/03/03 05:41:01;;;;;;;9.32;5.10;;;10.10;99.90;;;;;;8446903;28;20517;-74
2024/03/03 05:45:03;;;;;;;7.93;4.50;;;10.10;99.90;;;;;;8463080;27;20107;-74
2024/03/03 05:54:33;;;;;;;9.27;4.90;;;10.00;99.90;;;;;;8457090;28;20034;-74
2024/03/03 05:58:35;;;;;;;8.30;4.43;;;10.00;99.90;;;;;;8460059;28;20182;-75
2024/03/03 06:02:37;;;;;;;12.25;5.68;;;9.90;99.90;;;;;;8456819;27;20048;-75
2024/03/03 06:06:39;;;;;;;10.07;5.40;;;9.90;99.90;;;;;;8460143;28;20039;-75
2024/03/03 06:10:41;;;;;;;11.38;5.55;;;9.80;99.90;;;;;;8459912;27;20459;-74
2024/03/03 06:14:47;;;;;;;9.93;5.53;;;9.80;99.90;;;;;;8462159;28;20399;-75
2024/03/03 06:18:49;;;;;;;10.57;5.30;;;9.70;99.90;;;;;;8461643;27;20046;-74
2024/03/03 06:22:51;;;;;;;11.00;5.10;;;9.70;99.90;;;;;;8460972;28;20046;-75
2024/03/03 06:26:52;;;;;;;8.60;4.75;;;9.70;99.90;;;;;;8461833;28;20067;-74
2024/03/03 06:30:54;;;;;;;8.95;5.03;;;9.70;99.90;;;;;;8462202;28;20092;-75
2024/03/03 06:34:56;;;;;;;9.18;4.97;;;9.70;99.90;;;;;;8463038;28;20048;-75
2024/03/03 06:38:58;;;;;;;11.05;4.95;;;9.80;99.90;;;;;;8462800;28;20058;-75
2024/03/03 06:43:00;;;;;;;9.88;4.82;;;9.80;99.90;;;;;;8461705;28;20085;-74
2024/03/03 06:47:02;;;;;;;9.60;5.28;;;9.80;99.90;;;;;;8462287;27;20047;-74
2024/03/03 06:51:04;;;;;;;8.77;4.95;;;9.90;99.90;;;;;;8460778;28;20445;-75
2024/03/03 06:55:07;;;;;;;8.73;4.70;;;9.90;99.90;;;;;;8458953;28;20043;-74
2024/03/03 07:04:14;;;;;;;8.93;4.93;;;9.90;99.90;;;;;;8458706;27;20043;-74
2024/03/03 07:08:16;;;;;;;9.23;4.78;;;9.90;99.90;;;;;;8463171;28;20458;-74
2024/03/03 07:12:18;;;;;;;8.82;5.00;;;9.80;99.90;;;;;;8462980;27;20055;-75
2024/03/03 07:16:20;;;;;;;10.13;4.80;;;9.80;99.90;;;;;;8455814;28;20562;-74
2024/03/03 07:26:24;;;;;;;8.75;4.78;;;9.90;99.90;;;;;;8459327;28;20087;-74
2024/03/03 07:30:26;;;;;;;7.95;4.35;;;10.00;99.90;;;;;;8461104;28;20126;-75
2024/03/03 07:34:29;;;;;;;9.40;5.00;;;10.10;99.90;;;;;;8463647;27;20043;-75
2024/03/03 07:38:31;;;;;;;8.27;4.78;;;10.20;99.90;;;;;;8455912;28;20078;-74
2024/03/03 07:42:33;;;;;;;8.55;4.88;;;10.20;99.90;;;;;;8453179;28;20047;-74
2024/03/03 07:46:35;;;;;;;8.35;4.68;;;10.30;99.90;;;;;;8453033;28;20063;-74
2024/03/03 07:50:37;;;;;;;7.80;4.40;;;10.40;99.90;;;;;;8445734;28;20051;-75
2024/03/03 07:54:39;;;;;;;7.95;4.85;;;10.40;99.90;;;;;;8450629;28;20040;-75
2024/03/03 07:58:41;;;;;;;8.57;4.50;;;10.40;99.90;;;;;;8447583;28;20685;-75
2024/03/03 08:02:43;;;;;;;8.65;4.90;;;10.40;99.90;;;;;;8435532;28;20052;-75
2024/03/03 08:06:44;;;;;;;8.80;4.78;;;10.40;99.90;;;;;;8453360;28;20518;-75
2024/03/03 08:10:46;;;;;;;10.82;4.80;;;10.50;99.90;;;;;;8439656;28;20048;-75
2024/03/03 08:14:48;;;;;;;9.50;5.18;;;10.70;99.90;;;;;;8438724;28;20041;-74
2024/03/03 08:18:50;;;;;;;8.05;4.85;;;10.80;99.90;;;;;;8458649;27;20046;-74
2024/03/03 08:22:51;;;;;;;10.15;5.35;;;10.80;99.90;;;;;;8455865;28;20452;-74
2024/03/03 08:26:53;;;;;;;10.57;5.18;;;11.00;99.90;;;;;;8458450;28;20464;-74
2024/03/03 08:30:55;;;;;;;10.85;5.00;;;11.10;99.90;;;;;;8442037;28;20043;-75
2024/03/03 08:34:57;;;;;;;8.77;5.07;;;11.10;99.90;;;;;;8455115;28;20054;-74
2024/03/03 08:39:03;;;;;;;9.15;5.10;;;11.20;99.90;;;;;;8455838;28;20080;-75
2024/03/03 08:43:04;;;;;;;9.95;5.00;;;11.30;99.90;;;;;;8451612;28;20085;-75
2024/03/03 08:47:06;;;;;;;9.73;5.05;;;11.40;99.90;;;;;;8440808;28;20534;-74
2024/03/03 08:51:09;;;;;;;8.60;5.05;;;11.50;99.90;;;;;;8455703;28;20075;-74
2024/03/03 08:55:11;;;;;;;9.13;4.72;;;11.60;99.90;;;;;;8459150;28;20040;-75
2024/03/03 08:59:13;;;;;;;9.18;4.75;;;11.70;99.90;;;;;;8459689;28;20052;-74
2024/03/03 09:03:27;;;;;;;8.93;4.07;;;11.70;99.90;;;;;;8450505;28;20179;-75
2024/03/03 09:07:29;;;;;;;8.10;4.30;;;11.80;99.90;;;;;;8461649;28;20048;-75
2024/03/03 09:11:33;;;;;;;7.63;4.53;;;11.90;99.90;;;;;;8460842;28;20052;-74
2024/03/03 09:15:35;;;;;;;7.57;4.32;;;12.00;99.90;;;;;;8456079;28;20059;-75
2024/03/03 09:19:37;;;;;;;8.07;4.10;;;12.10;99.90;;;;;;8465881;28;20100;-74
2024/03/03 09:23:39;;;;;;;7.60;3.67;;;12.30;99.90;;;;;;8460381;28;20884;-75
2024/03/03 09:27:41;;;;;;;6.50;3.78;;;12.40;99.90;;;;;;8467336;28;20047;-75
2024/03/03 09:31:43;;;;;;;7.82;4.47;;;12.60;99.90;;;;;;8465062;28;20083;-75
2024/03/03 09:35:44;;;;;;;6.57;3.97;;;12.70;99.90;;;;;;8460840;28;20043;-75
2024/03/03 09:39:46;;;;;;;7.65;3.75;;;12.80;99.90;;;;;;8472156;27;20043;-74
2024/03/03 09:43:54;;;;;;;8.60;4.55;;;12.90;99.90;;;;;;8465934;28;20126;-74
2024/03/03 09:47:58;;;;;;;10.88;4.80;;;13.00;99.90;;;;;;8466441;27;20047;-75
2024/03/03 09:52:03;;;;;;;9.48;5.65;;;13.20;99.90;;;;;;8466745;28;20134;-75
2024/03/03 09:56:08;;;;;;;9.07;5.60;;;13.30;99.90;;;;;;8460885;28;20067;-75
2024/03/03 10:00:10;;;;;;;10.40;6.10;;;13.40;99.90;;;;;;8458532;27;20343;-75
2024/03/03 10:04:14;;;;;;;8.73;5.50;;;13.50;99.90;;;;;;8462856;28;20131;-75
2024/03/03 10:08:21;;;;;;;11.32;5.88;;;13.60;99.90;;;;;;8459194;28;20052;-75
2024/03/03 10:12:24;;;;;;;8.85;6.13;;;13.90;99.90;;;;;;8458339;28;20452;-75
2024/03/03 10:16:31;;;;;;;8.95;5.78;;;14.20;99.90;;;;;;8454621;28;20148;-75
2024/03/03 10:20:34;;;;;;;10.00;6.25;;;14.60;99.90;;;;;;8462008;28;20055;-76
2024/03/03 10:24:36;;;;;;;11.45;6.43;;;14.60;99.90;;;;;;8457513;28;20058;-76
2024/03/03 10:28:37;;;;;;;10.88;5.50;;;14.60;99.90;;;;;;8455612;28;20087;-75
2024/03/03 10:32:40;;;;;;;9.85;5.15;;;14.60;99.90;;;;;;8461348;28;20534;-76
2024/03/03 10:36:42;;;;;;;9.00;6.00;;;14.50;99.90;;;;;;8461178;28;20047;-76
2024/03/03 10:40:45;;;;;;;12.18;5.85;;;14.40;99.90;;;;;;8462022;28;20087;-76
2024/03/03 10:44:47;;;;;;;9.05;5.75;;;14.30;99.90;;;;;;8461134;28;20043;-75
2024/03/03 10:48:52;;;;;;;10.32;5.90;;;14.30;99.90;;;;;;8459925;28;20094;-75
2024/03/03 10:52:54;;;;;;;10.18;5.75;;;14.30;99.90;;;;;;8458775;28;20086;-75
2024/03/03 10:56:58;;;;;;;9.25;5.78;;;14.30;99.90;;;;;;8458355;28;20044;-76
2024/03/03 11:01:01;;;;;;;8.25;5.18;;;14.30;99.90;;;;;;8457288;28;20048;-76
2024/03/03 11:05:04;;;;;;;10.30;6.07;;;14.20;99.90;;;;;;8465210;28;20044;-75
2024/03/03 11:09:06;;;;;;;8.00;4.72;;;14.20;99.90;;;;;;8455081;28;20051;-76
2024/03/03 11:13:12;;;;;;;8.60;5.30;;;14.10;99.90;;;;;;8461580;28;20406;-75
2024/03/03 11:17:19;;;;;;;8.85;5.00;;;14.20;99.90;;;;;;8458584;28;20052;-76
2024/03/03 11:21:28;;;;;;;10.33;5.77;;;14.20;99.90;;;;;;8456222;28;20047;-75
2024/03/03 11:25:35;;;;;;;8.25;5.03;;;14.60;99.90;;;;;;8458563;28;20054;-75
2024/03/03 11:29:38;;;;;;;;;;;15.40;99.90;;;;;;8459882;28;20115;-76
2024/03/03 11:33:41;;;;;;;7.15;4.25;;;16.70;99.90;;;;;;8460171;28;20344;-76
2024/03/03 11:37:43;;;;;;;7.03;3.72;;;18.10;99.90;;;;;;8459870;28;20044;-76
2024/03/03 11:41:45;;;;;;;5.78;3.30;;;18.70;99.90;;;;;;8461950;28;20047;-76
2024/03/03 11:45:48;;;;;;;6.70;3.83;;;18.80;99.90;;;;;;8458182;28;20059;-76
2024/03/03 11:49:51;;;;;;;5.00;2.92;;;19.00;99.90;;;;;;8452520;28;20466;-76
2024/03/03 11:53:58;;;;;;;5.10;2.60;;;19.30;99.90;;;;;;8451518;28;20055;-76
2024/03/03 11:58:04;;;;;;;5.93;2.75;;;19.90;99.90;;;;;;8452610;28;20406;-76
2024/03/03 12:02:10;;;;;;;4.55;2.10;;;20.60;99.90;;;;;;8455410;28;20141;-75
2024/03/03 12:06:16;;;;;;;4.22;2.10;;;21.10;99.90;;;;;;8457087;28;20040;-75
2024/03/03 12:10:22;;;;;;;5.47;2.35;;;21.10;99.90;;;;;;8454425;28;20044;-75
2024/03/03 12:14:24;;;;;;;5.35;2.10;;;21.00;99.90;;;;;;8452099;28;20055;-75
2024/03/03 12:18:27;;;;;;;3.78;1.70;;;21.20;99.90;;;;;;8426511;28;20074;-76
2024/03/03 12:22:29;;;;;;;4.85;1.90;;;21.40;99.90;;;;;;8431075;28;20089;-76
2024/03/03 12:26:31;;;;;;;4.25;1.70;;;21.50;99.90;;;;;;8424363;27;20088;-75
2024/03/03 12:30:33;;;;;;;3.95;1.63;;;21.30;99.90;;;;;;8434137;28;20052;-76
2024/03/03 12:34:35;;;;;;;4.05;1.50;;;21.00;99.90;;;;;;8427392;28;20071;-76
2024/03/03 12:38:37;;;;;;;4.53;1.58;;;20.90;99.90;;;;;;8436599;28;20093;-76
2024/03/03 12:42:39;;;;;;;3.65;1.55;;;21.00;99.90;;;;;;8427942;28;20132;-76
2024/03/03 12:46:42;;;;;;;4.00;1.20;;;21.40;99.90;;;;;;8427549;28;20060;-76
2024/03/03 12:50:51;;;;;;;3.83;1.20;;;21.60;99.90;;;;;;8431056;28;20445;-77
2024/03/03 12:54:57;;;;;;;3.40;1.40;;;21.80;99.90;;;;;;8426751;28;20445;-76
2024/03/03 12:59:00;;;;;;;5.55;1.48;;;22.10;99.90;;;;;;8434689;28;20051;-75
2024/03/03 13:03:02;;;;;;;3.47;1.42;;;22.40;99.90;;;;;;8436002;28;20036;-76
2024/03/03 13:07:04;;;;;;;3.53;1.30;;;22.80;99.90;;;;;;8436788;28;20039;-76
2024/03/03 13:11:09;;;;;;;4.45;1.33;;;22.80;99.90;;;;;;8435534;28;20487;-76
2024/03/03 13:15:11;;;;;;;3.08;1.25;;;21.80;99.90;;;;;;8432061;28;20678;-76
2024/03/03 13:19:17;;;;;;;3.42;1.33;;;20.90;99.90;;;;;;8437806;28;20518;-76
2024/03/03 13:23:20;;;;;;;3.60;1.70;;;20.40;99.90;;;;;;8433679;28;20051;-76
2024/03/03 13:27:26;;;;;;;2.95;1.38;;;20.00;99.90;;;;;;8430458;28;20059;-76
2024/03/03 13:31:27;;;;;;;4.35;1.80;;;19.50;99.90;;;;;;8431299;28;20048;-76
2024/03/03 13:35:32;;;;;;;3.88;1.70;;;19.10;99.90;;;;;;8429925;28;20051;-76
2024/03/03 13:39:34;;;;;;;4.30;1.83;;;18.90;99.90;;;;;;8428153;28;20540;-76
2024/03/03 13:43:36;;;;;;;5.20;1.83;;;18.90;99.90;;;;;;8426544;28;20058;-76
2024/03/03 13:47:38;;;;;;;4.57;2.00;;;19.00;99.90;;;;;;8430778;28;20458;-76
2024/03/03 13:51:40;;;;;;;4.68;2.20;;;19.10;99.90;;;;;;8423225;28;20054;-76
2024/03/03 13:55:41;;;;;;;4.25;1.88;;;19.10;99.90;;;;;;8425662;28;20097;-76
2024/03/03 13:59:43;;;;;;;4.70;2.60;;;19.10;99.90;;;;;;8432662;28;20097;-75
2024/03/03 14:03:45;;;;;;;3.83;2.00;;;19.20;99.90;;;;;;8434982;27;20039;-76
2024/03/03 14:07:47;;;;;;;4.85;2.05;;;19.20;99.90;;;;;;8444221;28;20047;-76
2024/03/03 14:11:51;;;;;;;5.57;2.25;;;19.30;99.90;;;;;;8431738;28;20040;-76
2024/03/03 14:15:53;;;;;;;4.25;2.20;;;19.30;99.90;;;;;;8427779;27;20055;-76
2024/03/03 14:19:55;;;;;;;6.85;2.60;;;19.50;99.90;;;;;;8430961;28;20047;-76
2024/03/03 14:23:57;;;;;;;6.07;2.30;;;19.60;99.90;;;;;;8431487;28;20039;-76
2024/03/03 14:27:58;;;;;;;4.60;2.25;;;19.50;99.90;;;;;;8438370;28;20040;-76
2024/03/03 14:32:12;;;;;;;7.35;2.60;;;19.50;99.90;;;;;;8433664;28;20044;-76
2024/03/03 14:36:15;;;;;;;5.82;2.40;;;19.50;99.90;;;;;;8431196;28;20048;-76
2024/03/03 14:40:17;;;;;;;5.13;2.13;;;19.50;99.90;;;;;;8431060;28;20043;-76
2024/03/03 14:44:19;;;;;;;5.80;2.40;;;19.60;99.90;;;;;;8428622;28;20070;-76
2024/03/03 14:48:21;;;;;;;4.13;2.15;;;19.70;99.90;;;;;;8430675;28;20056;-77
2024/03/03 14:52:23;;;;;;;5.78;1.88;;;20.60;99.90;;;;;;8429044;28;20117;-77
2024/03/03 14:56:26;;;;;;;4.68;2.10;;;21.20;99.90;;;;;;8431449;27;20139;-77
2024/03/03 15:00:27;;;;;;;4.20;1.70;;;21.00;99.90;;;;;;8429857;28;20048;-77
2024/03/03 15:04:29;;;;;;;3.88;1.77;;;20.60;99.90;;;;;;8431138;28;20138;-77
2024/03/03 15:08:31;;;;;;;3.85;1.73;;;20.10;99.90;;;;;;8432771;27;20060;-76
2024/03/03 15:12:33;;;;;;;4.88;2.17;;;19.80;99.90;;;;;;8430620;28;20059;-76
2024/03/03 15:16:35;;;;;;;6.88;2.30;;;19.40;99.90;;;;;;8442414;28;20058;-76
2024/03/03 15:20:37;;;;;;;4.10;1.70;;;19.00;99.90;;;;;;8439334;28;20452;-76
2024/03/03 15:24:39;;;;;;;3.72;1.80;;;18.70;99.90;;;;;;8440044;27;20675;-77
2024/03/03 15:28:41;;;;;;;4.72;2.17;;;18.50;99.90;;;;;;8437032;27;20051;-76
2024/03/03 15:32:43;;;;;;;4.28;1.90;;;18.40;99.90;;;;;;8443540;28;20414;-76
2024/03/03 15:36:45;;;;;;;4.82;1.90;;;18.30;99.90;;;;;;8438246;28;20054;-76
2024/03/03 15:40:47;;;;;;;4.75;2.38;;;18.30;99.90;;;;;;8439446;27;20066;-76
2024/03/03 15:44:49;;;;;;;5.00;2.25;;;18.10;99.90;;;;;;8443623;28;20043;-76
2024/03/03 15:48:51;;;;;;;4.20;2.20;;;18.00;99.90;;;;;;8427286;28;20392;-76
2024/03/03 15:52:54;;;;;;;4.18;2.28;;;17.80;99.90;;;;;;8433864;28;20489;-76
2024/03/03 15:56:56;;;;;;;5.07;2.03;;;17.70;99.90;;;;;;8432476;28;20591;-76
2024/03/03 16:00:58;;;;;;;4.80;2.33;;;17.50;99.90;;;;;;8420914;27;20077;-76
2024/03/03 16:05:00;;;;;;;4.15;2.22;;;17.30;99.90;;;;;;8425893;28;20081;-76
2024/03/03 16:09:03;;;;;;;5.65;2.50;;;17.20;99.90;;;;;;8428687;28;20052;-76
2024/03/03 16:13:06;;;;;;;4.53;2.17;;;17.10;99.90;;;;;;8428931;28;20074;-76
2024/03/03 16:17:09;;;;;;;3.97;2.20;;;16.90;99.90;;;;;;8421118;28;20475;-76
2024/03/03 16:21:10;;;;;;;4.85;2.63;;;16.90;99.90;;;;;;8436287;28;20490;-76
2024/03/03 16:25:12;;;;;;;4.50;2.33;;;16.80;99.90;;;;;;8425051;28;20047;-76
2024/03/03 16:29:16;;;;;;;5.80;2.28;;;16.80;99.90;;;;;;8439464;28;20074;-76
2024/03/03 16:33:18;;;;;;;4.60;2.38;;;16.70;99.90;;;;;;8444036;27;20138;-76
2024/03/03 16:37:20;;;;;;;4.95;2.70;;;16.60;99.90;;;;;;8432338;28;20067;-76
2024/03/03 16:41:22;;;;;;;6.20;2.58;;;16.60;99.90;;;;;;8430716;28;20075;-76
2024/03/03 16:45:25;;;;;;;5.30;3.08;;;16.60;99.90;;;;;;8427226;28;20071;-76
2024/03/03 16:49:27;;;;;;;5.45;2.92;;;16.50;99.90;;;;;;8424857;28;20054;-76
2024/03/03 16:53:29;;;;;;;6.30;2.92;;;16.40;99.90;;;;;;8435436;28;20044;-76
2024/03/03 16:57:32;;;;;;;5.05;2.80;;;16.30;99.90;;;;;;8422498;28;20056;-76
2024/03/03 17:01:34;;;;;;;6.72;3.33;;;16.30;99.90;;;;;;8427568;28;20425;-76
2024/03/03 17:05:36;;;;;;;6.05;3.10;;;16.20;99.90;;;;;;8429871;28;20507;-76
2024/03/03 17:09:38;;;;;;;6.78;3.15;;;16.10;99.90;;;;;;8427757;28;20545;-76
2024/03/03 17:13:40;;;;;;;6.65;2.80;;;16.00;99.90;;;;;;8430306;28;20105;-76
2024/03/03 17:17:42;;;;;;;5.60;3.30;;;15.90;99.90;;;;;;8433563;28;20511;-76
2024/03/03 17:21:44;;;;;;;6.60;3.20;;;15.80;99.90;;;;;;8424397;28;20487;-76
2024/03/03 17:25:47;;;;;;;5.93;3.10;;;15.80;99.90;;;;;;8425071;28;20330;-76
2024/03/03 17:29:48;;;;;;;5.45;2.95;;;15.70;99.90;;;;;;8426200;28;20044;-76
2024/03/03 17:33:51;;;;;;;8.20;3.40;;;15.70;99.90;;;;;;8426222;28;20430;-76
2024/03/03 17:37:53;;;;;;;6.57;3.10;;;15.60;99.90;;;;;;8430806;28;20043;-76
2024/03/03 17:41:55;;;;;;;7.00;3.22;;;15.60;99.90;;;;;;8431432;28;20530;-76
2024/03/03 17:45:58;;;;;;;5.07;3.13;;;15.50;99.90;;;;;;8437876;28;20059;-76
2024/03/03 17:49:59;;;;;;;5.32;3.15;;;15.50;99.90;;;;;;8438500;28;20123;-76
2024/03/03 17:54:01;;;;;;;6.50;3.65;;;15.40;99.90;;;;;;8433914;28;20054;-76
2024/03/03 17:58:03;;;;;;;5.70;3.13;;;15.30;99.90;;;;;;8435250;28;20112;-76
2024/03/03 18:02:05;;;;;;;5.60;3.38;;;15.30;99.90;;;;;;8439283;28;20072;-75
2024/03/03 18:06:08;;;;;;;6.00;3.30;;;15.10;99.90;;;;;;8437639;28;20267;-76
2024/03/03 18:10:10;;;;;;;7.22;4.20;;;14.90;99.90;;;;;;8437367;27;20051;-76
2024/03/03 18:14:12;;;;;;;7.57;5.10;;;14.60;99.90;;;;;;8436676;28;20054;-76
2024/03/03 18:18:14;;;;;;;14.07;6.82;;;14.40;99.90;;;;;;8434793;27;20051;-76
2024/03/03 18:22:16;;;;;;;10.13;6.75;;;14.20;99.90;;;;;;8436917;28;20044;-76
2024/03/03 18:26:17;;;;;;;10.32;6.70;;;14.00;99.90;;;;;;8435031;28;20048;-76
2024/03/03 18:30:19;;;;;;;11.75;7.55;;;13.90;99.90;;;;;;8438006;28;20111;-76
2024/03/03 18:34:22;;;;;;;11.07;7.53;;;13.80;99.90;;;;;;8430754;28;20101;-76
2024/03/03 18:38:24;;;;;;;10.57;7.30;;;13.70;99.90;;;;;;8436970;28;20047;-76
2024/03/03 18:42:26;;;;;;;11.38;7.32;;;13.80;99.90;;;;;;8440296;28;20036;-77
2024/03/03 18:46:28;;;;;;;11.15;7.13;;;13.80;99.90;;;;;;8447843;28;20502;-76
2024/03/03 18:50:30;;;;;;;11.18;7.60;;;13.70;99.90;;;;;;8424372;28;20048;-76
2024/03/03 18:54:32;;;;;;;10.98;6.70;;;13.50;99.90;;;;;;8439845;28;20055;-76
2024/03/03 18:58:33;;;;;;;12.00;7.90;;;13.40;99.90;;;;;;8428994;28;20548;-76
2024/03/03 19:02:35;;;;;;;12.20;8.02;;;13.10;99.90;;;;;;8431358;28;20403;-76
2024/03/03 19:06:37;;;;;;;12.50;8.77;;;12.90;99.90;;;;;;8436412;27;20048;-76
2024/03/03 19:10:41;;;;;;;13.77;9.40;;;12.80;99.90;;;;;;8438455;27;20565;-75
2024/03/03 19:14:43;;;;;;;11.73;8.55;;;12.60;99.90;;;;;;8432996;28;20498;-76
2024/03/03 19:18:45;;;;;;;15.23;9.07;;;12.50;99.90;;;;;;8431065;28;20052;-75
2024/03/03 19:22:47;;;;;;;14.00;9.32;;;12.30;99.90;;;;;;8430873;28;20619;-75
2024/03/03 19:26:50;;;;;;;11.50;8.63;;;12.10;99.90;;;;;;8433103;28;20131;-75
2024/03/03 19:30:52;;;;;;;13.95;9.00;;;12.00;99.90;;;;;;8428210;28;20047;-75
2024/03/03 19:34:53;;;;;;;12.95;8.65;;;11.90;99.90;;;;;;8430012;28;20082;-75
2024/03/03 19:38:57;;;;;;;13.77;9.00;;;11.80;99.90;;;;;;8426174;28;20052;-77
2024/03/03 19:42:59;;;;;;;13.82;9.15;;;11.70;99.90;;;;;;8440886;27;20048;-76
2024/03/03 19:47:02;;;;;;;14.07;9.40;;;11.60;99.90;;;;;;8427723;28;20127;-76
2024/03/03 19:51:03;;;;;;;14.60;9.63;;;11.50;99.90;;;;;;8425832;28;20048;-75
2024/03/03 19:55:07;;;;;;;13.93;10.23;;;11.50;99.90;;;;;;8428352;28;20044;-76
2024/03/03 19:59:13;;;;;;;14.80;9.60;;;11.40;99.90;;;;;;8428702;28;20491;-76
2024/03/03 20:03:14;;;;;;;14.27;9.75;;;11.40;99.90;;;;;;8433201;28;20117;-76
2024/03/03 20:07:16;;;;;;;14.50;9.75;;;11.30;99.90;;;;;;8431942;28;20039;-76
2024/03/03 20:11:18;;;;;;;17.33;10.23;;;11.30;99.90;;;;;;8427407;28;20506;-76
2024/03/03 20:15:21;;;;;;;15.57;10.20;;;11.30;99.90;;;;;;8439018;28;20343;-76
2024/03/03 20:19:23;;;;;;;15.30;10.10;;;11.30;99.90;;;;;;8425611;28;20044;-75
2024/03/03 20:23:25;;;;;;;15.93;10.05;;;11.30;99.90;;;;;;8429864;28;20051;-76
2024/03/03 20:27:31;;;;;;;13.88;9.43;;;11.30;99.90;;;;;;8433936;27;20410;-76
2024/03/03 20:31:33;;;;;;;14.68;10.15;;;11.30;99.90;;;;;;8429698;28;20047;-76
2024/03/03 20:35:35;;;;;;;16.42;9.90;;;11.30;99.90;;;;;;8429810;28;20072;-75
2024/03/03 20:39:37;;;;;;;15.57;9.75;;;11.30;99.90;;;;;;8430688;28;20541;-75
2024/03/03 20:43:38;;;;;;;14.32;9.30;;;11.20;99.90;;;;;;8431180;28;20040;-76
2024/03/03 20:47:41;;;;;;;14.77;9.85;;;11.20;99.90;;;;;;8433087;28;20060;-75
2024/03/03 20:51:43;;;;;;;15.32;9.85;;;11.10;99.90;;;;;;8427082;28;20064;-75
2024/03/03 20:55:46;;;;;;;15.88;9.85;;;11.00;99.90;;;;;;8424388;28;20063;-75
2024/03/03 20:59:48;;;;;;;16.00;9.98;;;10.90;99.90;;;;;;8425739;28;20147;-75
2024/03/03 21:03:52;;;;;;;15.10;9.20;;;10.80;99.90;;;;;;8435557;28;20055;-75
2024/03/03 21:07:53;;;;;;;14.73;9.07;;;10.70;99.90;;;;;;8424964;28;20055;-75
2024/03/03 21:11:55;;;;;;;16.55;9.50;;;10.60;99.90;;;;;;8424982;28;20066;-76
2024/03/03 21:15:57;;;;;;;18.10;9.68;;;10.60;99.90;;;;;;8439108;28;20047;-76
2024/03/03 21:19:59;;;;;;;14.50;8.95;;;10.50;99.90;;;;;;8434653;28;20362;-76
2024/03/03 21:24:02;;;;;;;17.83;9.15;;;10.40;99.90;;;;;;8434498;28;20120;-76